createdAt,value
2022-10-18T00:00:12.286Z,88.92
2022-10-18T00:02:39.899Z,88.91
2022-10-18T00:05:08.030Z,88.86
2022-10-18T00:07:35.645Z,88.95
2022-10-18T00:10:03.710Z,88.87
2022-10-18T00:12:33.686Z,88.84
2022-10-18T00:15:03.678Z,88.84
2022-10-18T00:17:31.625Z,88.78
2022-10-18T00:19:59.519Z,88.87
2022-10-18T00:22:27.144Z,88.87
2022-10-18T00:24:54.777Z,88.81
2022-10-18T00:27:22.382Z,88.99
2022-10-18T00:29:53.630Z,89.05
2022-10-18T00:32:22.878Z,89.04
2022-10-18T00:34:50.933Z,89.18
2022-10-18T00:37:19.582Z,89.17
2022-10-18T00:39:47.430Z,89.16
2022-10-18T00:42:16.971Z,89.50
2022-10-18T00:45:13.988Z,89.22
2022-10-18T00:47:44.785Z,89.11
2022-10-18T00:50:12.821Z,89.09
2022-10-18T00:52:43.597Z,89.04
2022-10-18T00:55:12.350Z,89.21
2022-10-18T00:57:42.802Z,89.30
2022-10-18T01:00:11.458Z,89.24
2022-10-18T01:02:41.273Z,89.21
2022-10-18T01:05:11.947Z,89.13
2022-10-18T01:08:03.261Z,89.19
2022-10-18T01:10:38.789Z,89.18
2022-10-18T01:13:23.402Z,89.15
2022-10-18T01:15:59.956Z,89.08
2022-10-18T01:18:34.065Z,89.20
2022-10-18T01:21:19.712Z,89.17
2022-10-18T01:24:33.275Z,89.44
2022-10-18T01:27:14.726Z,89.29
2022-10-18T01:29:54.005Z,88.97
2022-10-18T01:32:27.889Z,89.37
2022-10-18T01:35:02.665Z,89.40
2022-10-18T01:37:32.821Z,89.36
2022-10-18T01:40:04.166Z,89.37
2022-10-18T01:42:32.427Z,89.42
2022-10-18T01:45:02.346Z,89.46
2022-10-18T01:47:32.610Z,89.48
2022-10-18T01:50:02.325Z,89.53
2022-10-18T01:52:30.240Z,89.62
2022-10-18T01:55:00.489Z,89.55
2022-10-18T01:57:36.977Z,89.67
2022-10-18T02:00:09.247Z,89.64
2022-10-18T02:02:48.273Z,89.73
2022-10-18T02:05:31.128Z,89.79
2022-10-18T02:08:12.643Z,89.58
2022-10-18T02:10:54.165Z,89.73
2022-10-18T02:13:24.538Z,89.73
2022-10-18T02:15:57.329Z,89.77
2022-10-18T02:18:31.339Z,89.85
2022-10-18T02:21:00.929Z,89.77
2022-10-18T02:23:28.792Z,89.77
2022-10-18T02:25:56.324Z,90.21
2022-10-18T02:30:58.797Z,89.68
2022-10-18T02:33:35.269Z,89.63
2022-10-18T02:36:12.447Z,89.50
2022-10-18T02:38:43.077Z,89.77
2022-10-18T02:41:10.741Z,89.65
2022-10-18T02:43:38.420Z,89.87
2022-10-18T02:46:06.834Z,89.80
2022-10-18T02:48:35.785Z,89.92
2022-10-18T02:51:03.376Z,90.07
2022-10-18T02:53:30.942Z,89.82
2022-10-18T02:55:58.568Z,90.09
2022-10-18T02:58:26.177Z,90.07
2022-10-18T03:00:53.784Z,90.04
2022-10-18T03:03:21.718Z,90.00
2022-10-18T03:05:51.505Z,90.36
2022-10-18T03:08:19.765Z,89.93
2022-10-18T03:10:48.230Z,89.87
2022-10-18T03:13:16.126Z,89.96
2022-10-18T03:15:43.613Z,90.09
2022-10-18T03:18:11.587Z,89.77
2022-10-18T03:20:39.227Z,89.94
2022-10-18T03:23:08.238Z,89.86
2022-10-18T03:25:35.845Z,90.04
2022-10-18T03:28:03.549Z,90.08
2022-10-18T03:30:31.319Z,89.94
2022-10-18T03:32:59.497Z,90.22
2022-10-18T03:35:27.138Z,89.89
2022-10-18T03:37:54.738Z,90.06
2022-10-18T03:40:23.724Z,90.09
2022-10-18T03:42:51.354Z,90.17
2022-10-18T03:45:19.118Z,90.11
2022-10-18T03:47:47.016Z,90.06
2022-10-18T03:50:14.509Z,90.24
2022-10-18T03:52:42.196Z,89.85
2022-10-18T03:55:10.409Z,89.97
2022-10-18T03:57:39.349Z,89.99
2022-10-18T04:00:08.867Z,90.17
2022-10-18T04:02:36.484Z,89.98
2022-10-18T04:05:04.179Z,90.16
2022-10-18T04:07:31.792Z,90.02
2022-10-18T04:09:59.477Z,90.03
2022-10-18T04:12:27.158Z,90.30
2022-10-18T04:14:56.097Z,90.04
2022-10-18T04:17:23.807Z,90.25
2022-10-18T04:19:51.417Z,90.18
2022-10-18T04:22:19.027Z,90.02
2022-10-18T04:24:46.656Z,90.09
2022-10-18T04:27:14.245Z,90.23
2022-10-18T04:29:41.872Z,89.95
2022-10-18T04:32:10.901Z,89.92
2022-10-18T04:34:38.558Z,90.10
2022-10-18T04:37:06.466Z,90.19
2022-10-18T04:39:34.086Z,89.98
2022-10-18T04:42:01.737Z,89.92
2022-10-18T04:44:29.340Z,90.19
2022-10-18T04:46:56.933Z,90.53
2022-10-18T04:49:25.908Z,89.77
2022-10-18T04:51:53.504Z,90.01
2022-10-18T04:54:22.857Z,90.18
2022-10-18T04:56:52.797Z,90.13
2022-10-18T04:59:20.517Z,90.24
2022-10-18T05:01:48.320Z,90.35
2022-10-18T05:04:15.884Z,90.38
2022-10-18T05:06:44.964Z,90.08
2022-10-18T05:09:12.601Z,89.67
2022-10-18T05:11:40.222Z,89.81
2022-10-18T05:14:10.092Z,89.91
2022-10-18T05:16:38.119Z,89.90
2022-10-18T05:19:06.506Z,89.60
2022-10-18T05:21:34.535Z,89.41
2022-10-18T05:24:03.539Z,90.07
2022-10-18T05:26:31.144Z,89.88
2022-10-18T05:28:58.779Z,89.92
2022-10-18T05:31:26.422Z,89.61
2022-10-18T05:33:54.069Z,90.19
2022-10-18T05:36:21.709Z,90.12
2022-10-18T05:38:49.319Z,90.12
2022-10-18T05:41:18.309Z,89.63
2022-10-18T05:43:45.964Z,90.02
2022-10-18T05:46:15.687Z,90.07
2022-10-18T05:48:44.435Z,90.17
2022-10-18T05:51:12.426Z,89.71
2022-10-18T05:53:39.873Z,90.17
2022-10-18T05:56:08.354Z,89.92
2022-10-18T05:58:37.541Z,89.89
2022-10-18T06:01:06.840Z,89.67
2022-10-18T06:03:35.490Z,89.97
2022-10-18T06:06:04.217Z,89.62
2022-10-18T06:08:45.872Z,89.45
2022-10-18T06:11:17.915Z,89.84
2022-10-18T06:13:49.083Z,89.79
2022-10-18T06:16:18.937Z,89.80
2022-10-18T06:18:49.169Z,89.97
2022-10-18T06:21:17.188Z,90.12
2022-10-18T06:23:44.747Z,90.38
2022-10-18T06:26:12.870Z,89.87
2022-10-18T06:28:40.574Z,90.01
2022-10-18T06:31:09.769Z,89.83
2022-10-18T06:33:37.822Z,89.63
2022-10-18T06:36:06.930Z,89.64
2022-10-18T06:38:34.891Z,89.94
2022-10-18T06:41:02.682Z,90.30
2022-10-18T06:43:30.553Z,89.88
2022-10-18T06:45:58.201Z,89.80
2022-10-18T06:48:27.153Z,89.58
2022-10-18T06:50:56.858Z,89.75
2022-10-18T07:05:36.167Z,90.02
2022-10-18T07:14:42.289Z,89.43
2022-10-18T07:17:10.065Z,89.70
2022-10-18T07:19:37.713Z,89.88
2022-10-18T07:22:06.731Z,90.25
2022-10-18T07:24:35.686Z,90.16
2022-10-18T07:27:03.291Z,90.26
2022-10-18T07:29:30.937Z,90.31
2022-10-18T07:31:58.744Z,90.42
2022-10-18T07:34:26.546Z,90.33
2022-10-18T07:36:54.202Z,90.62
2022-10-18T07:39:23.618Z,90.42
2022-10-18T07:41:51.263Z,90.78
2022-10-18T07:44:18.904Z,90.81
2022-10-18T07:46:46.770Z,90.93
2022-10-18T07:49:14.774Z,91.14
2022-10-18T07:51:42.773Z,91.55
2022-10-18T07:54:10.540Z,91.56
2022-10-18T07:56:39.894Z,91.71
2022-10-18T07:59:07.553Z,91.85
2022-10-18T08:01:37.811Z,92.12
2022-10-18T08:04:07.896Z,92.58
2022-10-18T08:06:37.619Z,92.60
2022-10-18T08:09:05.679Z,93.04
2022-10-18T08:11:34.462Z,93.41
2022-10-18T08:14:03.477Z,93.71
2022-10-18T08:19:06.841Z,94.47
2022-10-18T08:21:34.477Z,94.64
2022-10-18T08:24:02.398Z,94.66
2022-10-18T08:26:30.861Z,94.28
2022-10-18T08:29:17.627Z,94.61
2022-10-18T08:31:49.074Z,94.20
2022-10-18T08:34:19.695Z,94.37
2022-10-18T08:36:47.699Z,94.16
2022-10-18T08:39:17.525Z,93.92
2022-10-18T08:42:20.104Z,93.70
2022-10-18T08:44:50.262Z,93.35
2022-10-18T08:47:22.000Z,92.93
2022-10-18T08:49:52.914Z,92.71
2022-10-18T08:52:29.481Z,92.42
2022-10-18T08:55:03.159Z,92.24
2022-10-18T08:57:32.074Z,91.88
2022-10-18T09:00:00.053Z,91.59
2022-10-18T09:02:41.199Z,91.64
2022-10-18T09:05:20.500Z,91.42
2022-10-18T09:08:25.756Z,91.22
2022-10-18T09:11:05.284Z,91.30
2022-10-18T09:14:08.408Z,91.40
2022-10-18T09:16:43.653Z,91.15
2022-10-18T09:19:28.914Z,91.15
2022-10-18T09:22:00.448Z,90.97
2022-10-18T09:24:36.932Z,90.37
2022-10-18T09:27:11.768Z,89.84
2022-10-18T09:29:56.284Z,89.06
2022-10-18T09:32:37.101Z,88.36
2022-10-18T09:35:15.060Z,87.66
2022-10-18T09:37:45.070Z,86.98
2022-10-18T09:40:19.189Z,86.27
2022-10-18T09:42:56.329Z,85.65
2022-10-18T09:45:30.348Z,84.56
2022-10-18T09:48:06.076Z,84.10
2022-10-18T09:50:39.350Z,83.58
2022-10-18T09:53:16.838Z,82.62
2022-10-18T09:56:02.847Z,81.83
2022-10-18T09:58:41.199Z,80.90
2022-10-18T10:01:10.025Z,80.26
2022-10-18T10:03:37.851Z,79.33
2022-10-18T10:06:24.238Z,78.60
2022-10-18T10:08:56.326Z,78.00
2022-10-18T10:11:29.035Z,76.50
2022-10-18T10:13:58.813Z,75.36
2022-10-18T10:16:28.032Z,74.15
2022-10-18T10:18:56.194Z,73.11
2022-10-18T10:21:25.570Z,71.80
2022-10-18T10:23:55.810Z,70.73
2022-10-18T10:26:25.142Z,69.17
2022-10-18T10:28:53.032Z,68.90
2022-10-18T10:31:28.589Z,67.21
2022-10-18T10:34:01.385Z,66.63
2022-10-18T10:36:31.736Z,65.77
2022-10-18T10:39:08.206Z,65.06
2022-10-18T10:41:36.313Z,64.75
2022-10-18T10:44:14.768Z,63.64
2022-10-18T10:46:42.973Z,62.44
2022-10-18T10:52:25.627Z,60.12
2022-10-18T10:55:05.838Z,59.33
2022-10-18T10:57:39.723Z,58.55
2022-10-18T11:00:08.421Z,57.65
2022-10-18T11:02:37.348Z,56.72
2022-10-18T11:05:22.669Z,52.79
2022-10-18T11:07:56.214Z,54.87
2022-10-18T11:10:26.136Z,54.60
2022-10-18T11:13:04.351Z,53.46
2022-10-18T11:15:36.630Z,52.47
2022-10-18T11:18:17.262Z,50.75
2022-10-18T11:20:50.121Z,50.93
2022-10-18T11:23:21.610Z,49.52
2022-10-18T11:26:21.150Z,43.19
2022-10-18T11:29:13.142Z,44.06
2022-10-18T11:31:46.073Z,48.30
2022-10-18T11:34:30.188Z,45.42
2022-10-18T11:37:27.147Z,46.46
2022-10-18T11:40:06.476Z,45.59
2022-10-18T11:42:42.325Z,44.85
2022-10-18T11:45:27.978Z,41.90
2022-10-18T11:48:03.256Z,42.87
2022-10-18T11:50:38.622Z,42.98
2022-10-18T11:53:15.803Z,41.41
2022-10-18T11:55:59.146Z,37.82
2022-10-18T11:58:42.023Z,39.22
2022-10-18T12:01:24.612Z,40.77
2022-10-18T12:04:04.076Z,39.54
2022-10-18T12:06:36.344Z,40.00
2022-10-18T12:09:15.314Z,40.03
2022-10-18T12:11:53.485Z,39.81
2022-10-18T12:14:28.095Z,39.16
2022-10-18T12:17:27.934Z,38.67
2022-10-18T12:19:48.645Z,39.07
2022-10-18T12:22:22.311Z,37.49
2022-10-18T12:24:49.974Z,37.89
2022-10-18T12:27:20.249Z,36.99
2022-10-18T12:29:53.517Z,36.61
2022-10-18T12:32:25.744Z,36.65
2022-10-18T12:34:56.322Z,36.58
2022-10-18T12:37:47.721Z,32.85
2022-10-18T12:40:22.363Z,36.44
2022-10-18T12:42:53.082Z,36.37
2022-10-18T12:45:28.636Z,33.78
2022-10-18T12:48:01.351Z,34.74
2022-10-18T12:50:35.762Z,33.91
2022-10-18T12:53:07.185Z,34.54
2022-10-18T12:55:40.535Z,34.56
2022-10-18T12:58:28.570Z,29.70
2022-10-18T13:01:01.149Z,34.01
2022-10-18T13:03:56.985Z,30.10
2022-10-18T13:06:24.975Z,33.80
2022-10-18T13:09:19.465Z,28.86
2022-10-18T13:11:47.412Z,33.13
2022-10-18T13:14:59.212Z,28.93
2022-10-18T13:17:43.086Z,32.56
2022-10-18T13:20:27.013Z,32.05
2022-10-18T13:23:37.808Z,28.74
2022-10-18T13:26:18.620Z,31.27
2022-10-18T13:28:54.642Z,31.83
2022-10-18T13:31:29.768Z,32.33
2022-10-18T13:34:19.780Z,29.35
2022-10-18T13:36:58.346Z,31.21
2022-10-18T13:39:28.362Z,34.09
2022-10-18T13:42:28.908Z,30.53
2022-10-18T13:45:43.542Z,31.36
2022-10-18T13:48:52.211Z,31.53
2022-10-18T13:51:45.723Z,31.54
2022-10-18T13:54:43.058Z,32.01
2022-10-18T13:57:23.159Z,33.86
2022-10-18T14:00:09.220Z,34.12
2022-10-18T14:03:00.139Z,33.35
2022-10-18T14:05:51.956Z,32.02
2022-10-18T14:08:25.579Z,35.77
2022-10-18T14:11:03.067Z,35.73
2022-10-18T14:13:39.108Z,35.73
2022-10-18T14:16:14.406Z,35.81
2022-10-18T14:18:44.053Z,35.84
2022-10-18T14:21:28.743Z,35.46
2022-10-18T14:23:58.770Z,36.80
2022-10-18T14:26:29.157Z,36.42
2022-10-18T14:29:05.078Z,35.75
2022-10-18T14:31:33.645Z,36.49
2022-10-18T14:34:02.198Z,36.82
2022-10-18T14:36:40.633Z,36.53
2022-10-18T14:39:17.910Z,37.54
2022-10-18T14:41:49.912Z,37.28
2022-10-18T14:44:21.163Z,37.35
2022-10-18T14:46:51.048Z,37.77
2022-10-18T14:49:20.429Z,37.77
2022-10-18T14:51:52.284Z,38.12
2022-10-18T14:54:24.010Z,38.62
2022-10-18T14:56:53.961Z,35.88
2022-10-18T14:59:24.193Z,39.06
2022-10-18T15:01:55.034Z,39.52
2022-10-18T15:04:27.857Z,39.69
2022-10-18T15:06:58.271Z,39.35
2022-10-18T15:09:26.420Z,39.68
2022-10-18T15:11:59.873Z,39.52
2022-10-18T15:14:30.365Z,40.08
2022-10-18T15:17:02.605Z,39.47
2022-10-18T15:19:35.425Z,39.14
2022-10-18T15:25:17.776Z,36.91
2022-10-18T15:27:48.638Z,38.50
2022-10-18T15:30:21.593Z,39.50
2022-10-18T15:32:52.066Z,40.33
2022-10-18T15:35:26.422Z,40.76
2022-10-18T15:37:58.001Z,40.95
2022-10-18T15:40:40.725Z,40.20
2022-10-18T15:43:36.979Z,40.18
2022-10-18T15:46:07.005Z,42.75
2022-10-18T15:48:38.011Z,42.91
2022-10-18T15:51:08.873Z,43.12
2022-10-18T15:53:43.929Z,42.95
2022-10-18T15:56:27.073Z,44.07
2022-10-18T15:58:56.885Z,44.33
2022-10-18T16:01:33.380Z,43.99
2022-10-18T16:04:02.039Z,44.54
2022-10-18T16:06:35.200Z,44.79
2022-10-18T16:09:04.483Z,45.01
2022-10-18T16:11:32.081Z,45.20
2022-10-18T16:14:00.651Z,45.45
2022-10-18T16:16:30.009Z,45.68
2022-10-18T16:18:58.558Z,45.29
2022-10-18T16:21:28.940Z,45.54
2022-10-18T16:23:56.950Z,46.14
2022-10-18T16:26:27.439Z,46.06
2022-10-18T16:28:56.090Z,46.27
2022-10-18T16:31:25.497Z,46.44
2022-10-18T16:33:54.325Z,46.42
2022-10-18T16:36:24.026Z,46.79
2022-10-18T16:38:52.349Z,46.82
2022-10-18T16:41:19.996Z,46.84
2022-10-18T16:43:50.712Z,47.24
2022-10-18T16:46:20.529Z,47.28
2022-10-18T16:48:49.659Z,47.67
2022-10-18T16:51:18.725Z,47.73
2022-10-18T16:53:47.233Z,47.80
2022-10-18T16:56:17.040Z,48.09
2022-10-18T16:58:45.764Z,48.36
2022-10-18T17:01:18.118Z,48.45
2022-10-18T17:03:46.812Z,48.70
2022-10-18T17:06:17.802Z,49.06
2022-10-18T17:08:46.443Z,48.91
2022-10-18T17:11:15.765Z,49.20
2022-10-18T17:13:44.014Z,49.27
2022-10-18T17:16:24.096Z,49.74
2022-10-18T17:18:52.320Z,50.13
2022-10-18T17:21:20.034Z,49.75
2022-10-18T17:23:47.669Z,50.38
2022-10-18T17:26:28.373Z,50.21
2022-10-18T17:28:59.609Z,50.34
2022-10-18T17:31:32.407Z,50.49
2022-10-18T17:34:01.801Z,50.71
2022-10-18T17:36:29.970Z,50.93
2022-10-18T17:38:57.606Z,51.24
2022-10-18T17:41:25.596Z,51.52
2022-10-18T17:43:53.332Z,51.99
2022-10-18T17:46:21.076Z,51.93
2022-10-18T17:48:51.340Z,52.39
2022-10-18T17:51:19.111Z,52.65
2022-10-18T17:53:47.279Z,52.74
2022-10-18T17:56:15.947Z,52.84
2022-10-18T17:58:44.326Z,53.16
2022-10-18T18:01:14.289Z,53.01
2022-10-18T18:03:42.561Z,53.33
2022-10-18T18:06:20.255Z,53.46
2022-10-18T18:08:48.669Z,53.89
2022-10-18T18:11:17.944Z,54.16
2022-10-18T18:13:46.236Z,54.15
2022-10-18T18:16:15.826Z,54.28
2022-10-18T18:18:44.321Z,54.39
2022-10-18T18:21:12.512Z,54.85
2022-10-18T18:23:41.525Z,54.75
2022-10-18T18:26:09.561Z,54.76
2022-10-18T18:28:37.552Z,55.13
2022-10-18T18:31:09.449Z,55.15
2022-10-18T18:33:39.828Z,55.61
2022-10-18T18:36:08.752Z,55.60
2022-10-18T18:38:38.839Z,55.74
2022-10-18T18:41:10.934Z,55.72
2022-10-18T18:43:39.960Z,55.71
2022-10-18T18:46:10.608Z,55.64
2022-10-18T18:48:38.381Z,55.86
2022-10-18T18:51:07.187Z,56.37
2022-10-18T18:53:35.062Z,56.21
2022-10-18T18:56:04.790Z,56.48
2022-10-18T18:58:36.072Z,56.59
2022-10-18T19:01:08.147Z,56.72
2022-10-18T19:03:35.955Z,56.79
2022-10-18T19:06:06.060Z,57.50
2022-10-18T19:08:36.284Z,56.60
2022-10-18T19:11:08.070Z,57.06
2022-10-18T19:13:38.274Z,57.30
2022-10-18T19:16:19.546Z,57.76
2022-10-18T19:19:01.867Z,58.12
2022-10-18T19:21:31.966Z,57.75
2022-10-18T19:24:00.204Z,57.69
2022-10-18T19:26:34.218Z,57.96
2022-10-18T19:29:06.328Z,57.84
2022-10-18T19:31:35.891Z,58.14
2022-10-18T19:34:06.578Z,58.05
2022-10-18T19:36:34.629Z,58.24
2022-10-18T19:39:03.670Z,58.28
2022-10-18T19:41:31.593Z,58.40
2022-10-18T19:43:59.236Z,58.34
2022-10-18T19:46:28.222Z,58.56
2022-10-18T19:48:55.998Z,58.75
2022-10-18T19:51:27.904Z,58.70
2022-10-18T19:53:56.686Z,58.94
2022-10-18T19:56:26.382Z,58.92
2022-10-18T19:58:54.408Z,59.01
2022-10-18T20:01:22.548Z,59.21
2022-10-18T20:03:51.598Z,59.49
2022-10-18T20:06:21.587Z,59.56
2022-10-18T20:08:50.821Z,59.64
2022-10-18T20:11:20.306Z,59.67
2022-10-18T20:13:48.614Z,59.70
2022-10-18T20:16:17.745Z,59.71
2022-10-18T20:18:45.480Z,60.04
2022-10-18T20:21:16.185Z,60.21
2022-10-18T20:23:45.421Z,60.36
2022-10-18T20:26:18.311Z,60.64
2022-10-18T20:28:55.436Z,60.65
2022-10-18T20:31:25.210Z,60.84
2022-10-18T20:33:55.736Z,60.93
2022-10-18T20:36:25.651Z,60.93
2022-10-18T20:38:54.793Z,61.13
2022-10-18T20:41:24.619Z,61.11
2022-10-18T20:43:53.085Z,60.96
2022-10-18T20:46:21.308Z,61.02
2022-10-18T20:48:50.933Z,61.12
2022-10-18T20:51:19.378Z,61.19
2022-10-18T20:53:48.732Z,61.30
2022-10-18T20:56:20.124Z,61.30
2022-10-18T20:58:51.182Z,61.10
2022-10-18T21:01:20.240Z,61.35
2022-10-18T21:03:49.530Z,61.25
2022-10-18T21:06:19.065Z,61.43
2022-10-18T21:08:50.385Z,61.55
2022-10-18T21:11:18.069Z,61.88
2022-10-18T21:13:51.349Z,61.59
2022-10-18T21:16:19.136Z,61.79
2022-10-18T21:18:47.024Z,61.78
2022-10-18T21:21:17.425Z,61.75
2022-10-18T21:23:45.377Z,62.17
2022-10-18T21:26:17.606Z,62.64
2022-10-18T21:28:45.525Z,62.33
2022-10-18T21:31:14.518Z,63.08
2022-10-18T21:33:43.061Z,62.50
2022-10-18T21:36:10.944Z,62.43
2022-10-18T21:38:38.926Z,62.63
2022-10-18T21:41:08.784Z,63.55
2022-10-18T21:43:41.457Z,62.60
2022-10-18T21:46:10.966Z,62.75
2022-10-18T21:48:39.248Z,62.52
2022-10-18T21:51:08.444Z,62.88
2022-10-18T21:53:36.915Z,62.66
2022-10-18T21:56:08.604Z,62.80
2022-10-18T21:58:38.551Z,63.09
2022-10-18T22:01:09.600Z,63.54
2022-10-18T22:03:37.565Z,63.28
2022-10-18T22:06:07.987Z,63.32
2022-10-18T22:08:36.122Z,63.17
2022-10-18T22:11:04.285Z,63.23
2022-10-18T22:13:32.126Z,63.34
2022-10-18T22:16:03.125Z,63.26
2022-10-18T22:18:32.504Z,62.92
2022-10-18T22:21:02.733Z,63.09
2022-10-18T22:23:32.998Z,63.15
2022-10-18T22:26:05.014Z,63.67
2022-10-18T22:28:32.778Z,63.60
2022-10-18T22:31:02.363Z,63.82
2022-10-18T22:33:30.947Z,63.50
2022-10-18T22:35:58.829Z,63.68
2022-10-18T22:38:26.459Z,63.86
2022-10-18T22:40:54.065Z,63.75
2022-10-18T22:43:21.774Z,63.69
2022-10-18T22:45:49.386Z,63.69
2022-10-18T22:48:18.370Z,64.23
2022-10-18T22:50:45.984Z,64.12
2022-10-18T22:53:13.627Z,64.31
2022-10-18T22:55:41.243Z,64.17
2022-10-18T22:58:08.955Z,64.24
2022-10-18T23:00:40.424Z,64.70
2022-10-18T23:03:08.185Z,64.50
2022-10-18T23:05:40.227Z,64.60
2022-10-18T23:08:08.335Z,64.58
2022-10-18T23:10:38.271Z,65.51
2022-10-18T23:13:06.292Z,64.67
2022-10-18T23:15:34.013Z,64.57
2022-10-18T23:18:02.599Z,64.61
2022-10-18T23:20:30.256Z,64.37
2022-10-18T23:22:59.268Z,64.65
2022-10-18T23:25:27.143Z,65.06
2022-10-18T23:27:54.875Z,64.92
2022-10-18T23:30:23.220Z,64.94
2022-10-18T23:32:50.857Z,65.09
2022-10-18T23:35:18.694Z,65.17
2022-10-18T23:37:46.610Z,65.26
2022-10-18T23:40:15.636Z,65.31
2022-10-18T23:42:44.294Z,65.31
2022-10-18T23:45:12.195Z,65.32
2022-10-18T23:47:39.835Z,65.48
2022-10-18T23:50:08.113Z,65.49
2022-10-18T23:52:35.745Z,65.63
2022-10-18T23:55:03.705Z,65.73
2022-10-18T23:57:33.932Z,65.67
